Meath Environmental Platform

Observations for Trim Market St

Time AQI Temp °C Hum % Pres Pa CO μg/m³ H₂S μg/m³ NO μg/m³ NO₂ μg/m³ O₃ μg/m³ SO₂ μg/m³ PM1 μg/m³ PM2.5 μg/m³ PM10 μg/m³
Friday 14 August 2026
12:40 2 33.5 30 66,327 0 10.54 0.26 14.3 90.84 1.32 0 3.32 3.65
12:39 2 33.6 30 66,353 0 13.65 0.28 14.19 99 1.09 0 2.78 3.05
12:38 2 33.7 30 66,347 0 21.49 0.26 25.42 96.76 1.68 0 2.78 3.06
12:36 2 33.9 30 66,364 0 12.2 0.25 15.53 94.41 0.76 0 2.79 3.07
12:35 2 34.1 30 66,396 0 4.72 0.23 13.38 85.89 0.67 0 3.33 3.66
12:34 2 34.1 30 66,406 0 9.22 0.24 13.27 70.33 1.2 0 2.78 3.05
12:33 2 34.2 30 66,416 0 13.15 0.54 23.63 100.73 0.7 0 2.79 3.07
12:31 2 34.1 29 66,406 0 17.98 0.24 32.64 79.25 0 0 2.8 3.08
12:25 2 34.4 28 66,433 0 17.34 0.74 106.96 28.37 0 0 2.83 3.12
12:24 2 34.5 28 66,449 0 6.13 0.35 179.31 0 0 0 2.83 3.12
12:21 2 35 28 66,474 0 0 0.21 216.98 0 0 0 3.95 4.34
12:19 2 35.3 28 66,525 0 8.08 0.42 17.82 80.47 0 0 2.87 3.16
12:13 2 36.2 27 66,582 0 12.53 0.01 87.02 41.93 3.55 3.56 7.27 8.41
12:12 2 36.3 27 66,594 0 3.46 0 29.23 69.7 2.53 0 2.9 3.19
12:11 2 36.4 28 66,582 0 1.32 0.04 14.15 66.98 1.97 0 2.86 3.15
12:10 2 36.5 28 66,594 0 2.52 0.09 15.99 98.47 2.02 0 2.85 3.13
12:09 2 36.5 28 66,602 0 0 0.01 13.14 51.55 2.73 0 2.85 3.14
12:08 2 36.5 28 66,612 0 1.09 0 33.53 95.48 0.8 0 2.87 3.16
12:07 2 36.6 27 66,596 0 0 0 13.24 61 2.4 0 2.88 3.17
12:06 2 36.5 27 66,574 0 10.47 0 48.53 63.6 2.08 0 2.88 3.17